Time;durP1;ratioP1;P1;durP2;ratioP2;P2;SDS_P1;SDS_P2;PMS_P1;PMS_P2;Temp;Humidity;BMP_temperature;BMP_pressure;BME280_temperature;BME280_humidity;BME280_pressure;Samples;Min_cycle;Max_cycle;Signal;HPM_P1;HPM_P2
2021/12/05 00:24:15;;;;;;;;;;;20.80;42.00;;;;;;5007725;28;19921;-74
2021/12/05 00:26:42;;;;;;;;;;;20.80;41.90;;;;;;4992167;28;19910;-73
2021/12/05 00:29:18;;;;;;;;;;;20.80;42.00;;;;;;4976041;28;19910;-73
2021/12/05 00:40:32;;;;;;;;;;;20.70;42.00;;;;;;4985847;28;19924;-73
2021/12/05 00:43:19;;;;;;;;;;;20.80;41.80;;;;;;4979652;28;19925;-73
2021/12/05 00:46:15;;;;;;;;;;;20.70;42.00;;;;;;4987455;28;20005;-73
2021/12/05 00:57:10;;;;;;;;;;;20.70;42.10;;;;;;4986041;28;20441;-74
2021/12/05 01:04:49;;;;;;;;;;;20.60;41.80;;;;;;4993678;28;19920;-72
2021/12/05 01:07:33;;;;;;;;;;;20.60;41.80;;;;;;4986574;28;19925;-74
2021/12/05 01:15:16;;;;;;;;;;;20.60;41.90;;;;;;4998286;28;19925;-73
2021/12/05 01:18:10;;;;;;;;;;;20.60;41.90;;;;;;4981482;28;19913;-75
2021/12/05 01:20:32;;;;;;;;;;;20.60;41.90;;;;;;4980992;28;19910;-74
2021/12/05 01:23:08;;;;;;;;;;;20.60;42.00;;;;;;4988945;28;19914;-74
2021/12/05 01:30:54;;;;;;;;;;;20.50;41.90;;;;;;4991950;28;20301;-73
2021/12/05 01:33:51;;;;;;;;;;;20.50;41.90;;;;;;4999511;28;19918;-74
2021/12/05 01:36:16;;;;;;;;;;;20.50;42.00;;;;;;4991899;28;19918;-74
2021/12/05 01:41:58;;;;;;;;;;;20.50;41.80;;;;;;4992318;28;19984;-74
2021/12/05 02:00:42;;;;;;;;;;;20.40;41.80;;;;;;4993571;28;19921;-72
2021/12/05 02:07:46;;;;;;;;;;;20.40;41.70;;;;;;4995960;28;19929;-73
2021/12/05 02:08:58;;;;;;;;;;;20.40;41.80;;;;;;5006837;28;19967;-74
2021/12/05 02:16:46;;;;;;;;;;;20.30;41.90;;;;;;4996082;28;19918;-73
2021/12/05 02:33:31;;;;;;;;;;;20.40;41.50;;;;;;4994720;28;19913;-73
2021/12/05 02:43:14;;;;;;;;;;;21.00;40.50;;;;;;4995187;28;19917;-72
2021/12/05 02:45:41;;;;;;;;;;;21.20;40.30;;;;;;4991005;28;20012;-73
2021/12/05 02:48:06;;;;;;;;;;;21.30;40.10;;;;;;5002627;28;19925;-73
2021/12/05 02:50:32;;;;;;;;;;;21.40;39.80;;;;;;4993967;28;19958;-73
2021/12/05 02:53:03;;;;;;;;;;;21.60;39.60;;;;;;4995169;28;19918;-73
2021/12/05 02:55:41;;;;;;;;;;;21.60;39.40;;;;;;5006591;28;20362;-73
2021/12/05 02:58:16;;;;;;;;;;;21.70;39.30;;;;;;4987016;28;19914;-74
2021/12/05 03:00:52;;;;;;;;;;;21.80;39.20;;;;;;4994687;28;19909;-74
2021/12/05 03:03:19;;;;;;;;;;;21.80;39.20;;;;;;4994008;28;19914;-74
2021/12/05 03:05:59;;;;;;;;;;;21.80;39.10;;;;;;4985664;28;19918;-73
2021/12/05 03:08:24;;;;;;;;;;;21.80;39.20;;;;;;4996908;28;20700;-74
2021/12/05 03:10:50;;;;;;;;;;;21.80;39.10;;;;;;4994244;28;19913;-73
2021/12/05 03:13:15;;;;;;;;;;;21.80;39.00;;;;;;4993373;28;19910;-73
2021/12/05 03:15:41;;;;;;;;;;;21.80;39.10;;;;;;4976928;28;19924;-74
2021/12/05 03:18:07;;;;;;;;;;;21.80;39.10;;;;;;4993369;28;20513;-74
2021/12/05 03:20:32;;;;;;;;;;;21.80;39.10;;;;;;4993445;28;19959;-74
2021/12/05 03:22:58;;;;;;;;;;;21.80;39.10;;;;;;4993332;28;19920;-74
2021/12/05 03:25:23;;;;;;;;;;;21.70;39.10;;;;;;4994332;28;19921;-73
2021/12/05 03:27:49;;;;;;;;;;;21.80;39.20;;;;;;4993107;28;20531;-72
2021/12/05 03:30:18;;;;;;;;;;;21.70;39.00;;;;;;4994765;28;19916;-72
2021/12/05 03:32:43;;;;;;;;;;;21.70;39.10;;;;;;4993166;28;19917;-73
2021/12/05 03:35:09;;;;;;;;;;;21.70;39.80;;;;;;4993254;28;19917;-74
2021/12/05 03:37:34;;;;;;;;;;;21.70;39.10;;;;;;4993002;28;20005;-74
2021/12/05 03:39:59;;;;;;;;;;;21.70;39.10;;;;;;4993957;28;20290;-74
2021/12/05 03:42:25;;;;;;;;;;;21.70;39.10;;;;;;4991755;28;19949;-73
2021/12/05 03:44:50;;;;;;;;;;;21.70;39.10;;;;;;4990679;28;19914;-74
2021/12/05 03:47:16;;;;;;;;;;;21.70;39.00;;;;;;4976195;28;19910;-74
2021/12/05 03:49:41;;;;;;;;;;;21.70;39.00;;;;;;4993043;28;19914;-74
2021/12/05 03:52:08;;;;;;;;;;;21.70;39.00;;;;;;4994737;28;19960;-74
2021/12/05 03:54:33;;;;;;;;;;;21.80;39.00;;;;;;4976716;28;19913;-74
2021/12/05 03:56:59;;;;;;;;;;;21.80;39.00;;;;;;4992677;28;20014;-74
2021/12/05 03:59:27;;;;;;;;;;;21.80;38.90;;;;;;4998679;28;19920;-74
2021/12/05 04:01:53;;;;;;;;;;;21.80;38.90;;;;;;4996878;28;19910;-74
2021/12/05 04:04:19;;;;;;;;;;;21.80;38.90;;;;;;4992951;28;19909;-74
2021/12/05 04:06:45;;;;;;;;;;;21.80;38.80;;;;;;4970338;28;19921;-74
2021/12/05 04:09:11;;;;;;;;;;;21.80;38.80;;;;;;4993486;28;19926;-73
2021/12/05 04:11:40;;;;;;;;;;;21.80;38.80;;;;;;4992830;28;19946;-74
2021/12/05 04:14:06;;;;;;;;;;;21.80;38.90;;;;;;4992188;28;20040;-73
2021/12/05 04:16:31;;;;;;;;;;;21.80;38.90;;;;;;4992531;28;19976;-74
2021/12/05 04:18:57;;;;;;;;;;;21.80;38.90;;;;;;4992896;28;20500;-73
2021/12/05 04:21:22;;;;;;;;;;;21.80;38.90;;;;;;4992106;28;19920;-73
2021/12/05 04:23:48;;;;;;;;;;;21.80;38.90;;;;;;4991944;28;19909;-73
2021/12/05 04:26:13;;;;;;;;;;;21.80;38.90;;;;;;4993367;28;19913;-73
2021/12/05 04:28:39;;;;;;;;;;;21.80;38.90;;;;;;4991586;28;20285;-73
2021/12/05 04:31:07;;;;;;;;;;;21.80;38.90;;;;;;4993960;28;20008;-73
2021/12/05 04:33:33;;;;;;;;;;;21.80;38.90;;;;;;4992415;28;19913;-73
2021/12/05 04:35:59;;;;;;;;;;;21.70;38.80;;;;;;4975729;28;19972;-74
2021/12/05 04:38:26;;;;;;;;;;;21.60;38.90;;;;;;4991553;28;19929;-74
2021/12/05 04:40:51;;;;;;;;;;;21.50;39.00;;;;;;5007642;28;19917;-73
2021/12/05 04:43:17;;;;;;;;;;;21.50;39.20;;;;;;4991203;28;20286;-73
2021/12/05 04:45:42;;;;;;;;;;;21.40;39.20;;;;;;4993254;28;19910;-73
2021/12/05 04:48:08;;;;;;;;;;;21.30;39.30;;;;;;4991798;28;19945;-73
2021/12/05 04:50:34;;;;;;;;;;;21.20;39.40;;;;;;4976004;28;19914;-73
2021/12/05 04:52:59;;;;;;;;;;;21.20;39.50;;;;;;4975856;28;19914;-73
2021/12/05 04:55:25;;;;;;;;;;;21.20;39.50;;;;;;4991756;28;19973;-73
2021/12/05 04:57:50;;;;;;;;;;;21.20;39.60;;;;;;4991385;28;19918;-72
2021/12/05 05:00:17;;;;;;;;;;;21.20;39.60;;;;;;4997475;28;19914;-73
2021/12/05 05:02:43;;;;;;;;;;;21.30;39.50;;;;;;4992086;28;19910;-73
2021/12/05 05:05:08;;;;;;;;;;;21.40;39.40;;;;;;4991704;28;19910;-74
2021/12/05 05:07:36;;;;;;;;;;;21.50;39.30;;;;;;4975655;28;19925;-74
2021/12/05 05:10:05;;;;;;;;;;;21.50;39.10;;;;;;4991661;28;20371;-74
2021/12/05 05:12:30;;;;;;;;;;;21.60;39.10;;;;;;4993168;28;20428;-74
2021/12/05 05:14:56;;;;;;;;;;;21.70;38.90;;;;;;4993026;28;19982;-73
2021/12/05 05:17:22;;;;;;;;;;;21.70;38.90;;;;;;4992047;28;20429;-73
2021/12/05 05:19:51;;;;;;;;;;;21.70;38.80;;;;;;4992006;28;19909;-73
2021/12/05 05:46:57;;;;;;;;;;;21.70;38.60;;;;;;4991525;28;19968;-74
2021/12/05 05:50:07;;;;;;;;;;;21.70;38.60;;;;;;4979507;28;19922;-74
2021/12/05 05:52:08;;;;;;;;;;;21.70;38.60;;;;;;4991572;28;19917;-73
2021/12/05 05:54:33;;;;;;;;;;;21.70;38.70;;;;;;5010858;28;19918;-74
2021/12/05 05:57:13;;;;;;;;;;;21.70;38.70;;;;;;4994658;28;19918;-74
2021/12/05 05:59:57;;;;;;;;;;;21.70;38.70;;;;;;5001466;28;19914;-73
2021/12/05 06:05:06;;;;;;;;;;;21.70;38.60;;;;;;4994898;28;19933;-74
2021/12/05 06:07:33;;;;;;;;;;;21.80;38.60;;;;;;4983255;28;20382;-74
2021/12/05 06:09:59;;;;;;;;;;;21.80;38.60;;;;;;4978919;28;19988;-74
2021/12/05 06:12:24;;;;;;;;;;;21.80;38.50;;;;;;4975108;28;20013;-73
2021/12/05 06:14:49;;;;;;;;;;;21.80;38.50;;;;;;4993876;28;19913;-74
2021/12/05 06:17:18;;;;;;;;;;;21.80;38.50;;;;;;4995876;28;20289;-74
2021/12/05 06:19:43;;;;;;;;;;;21.80;38.40;;;;;;4985040;28;19960;-73
2021/12/05 06:22:09;;;;;;;;;;;21.80;38.40;;;;;;4996176;28;20325;-73
2021/12/05 06:24:34;;;;;;;;;;;21.80;38.40;;;;;;4994564;28;20004;-73
2021/12/05 06:27:01;;;;;;;;;;;21.80;38.50;;;;;;4995491;28;19914;-74
2021/12/05 06:29:32;;;;;;;;;;;21.80;38.40;;;;;;4994570;28;19910;-74
2021/12/05 06:32:31;;;;;;;;;;;21.80;38.40;;;;;;5001189;28;19910;-74
2021/12/05 06:37:45;;;;;;;;;;;21.80;39.10;;;;;;4995592;28;19924;-73
2021/12/05 06:42:58;;;;;;;;;;;21.80;38.50;;;;;;4994466;28;19960;-73
2021/12/05 06:48:07;;;;;;;;;;;21.80;38.50;;;;;;4995149;28;20457;-74
2021/12/05 06:50:33;;;;;;;;;;;21.80;38.50;;;;;;4977740;28;19953;-74
2021/12/05 06:52:59;;;;;;;;;;;21.80;38.50;;;;;;4993932;28;20267;-74
2021/12/05 06:55:24;;;;;;;;;;;21.80;38.50;;;;;;4992446;28;20653;-73
2021/12/05 06:57:50;;;;;;;;;;;21.80;38.50;;;;;;4993555;28;19914;-73
2021/12/05 07:00:20;;;;;;;;;;;21.80;38.40;;;;;;4976941;28;19914;-73
2021/12/05 07:02:45;;;;;;;;;;;21.80;38.40;;;;;;4994962;28;19992;-73
2021/12/05 07:07:55;;;;;;;;;;;21.80;38.40;;;;;;4990675;28;20064;-74
2021/12/05 07:10:21;;;;;;;;;;;21.80;38.40;;;;;;4976883;28;19980;-74
2021/12/05 07:23:43;;;;;;;;;;;21.80;38.40;;;;;;4985442;28;20016;-73
2021/12/05 07:42:25;;;;;;;;;;;21.80;38.30;;;;;;4994162;28;20039;-74
2021/12/05 07:44:51;;;;;;;;;;;21.80;38.30;;;;;;4992945;28;20363;-74
2021/12/05 07:47:19;;;;;;;;;;;21.80;38.30;;;;;;4988207;28;20012;-73
2021/12/05 07:49:46;;;;;;;;;;;21.80;38.30;;;;;;4983083;28;19917;-73
2021/12/05 07:52:17;;;;;;;;;;;21.80;38.30;;;;;;4993732;28;19920;-74
2021/12/05 07:54:46;;;;;;;;;;;21.80;38.30;;;;;;4994044;28;19913;-74
2021/12/05 07:57:23;;;;;;;;;;;21.80;38.30;;;;;;4976550;28;20016;-74
2021/12/05 08:16:17;;;;;;;;;;;21.80;38.10;;;;;;4992078;28;19964;-74
2021/12/05 08:18:43;;;;;;;;;;;21.80;38.10;;;;;;4993680;28;20323;-74
2021/12/05 08:21:09;;;;;;;;;;;21.80;38.20;;;;;;5008588;28;19949;-74
2021/12/05 08:23:35;;;;;;;;;;;21.80;38.20;;;;;;4988750;28;19929;-73
2021/12/05 08:26:09;;;;;;;;;;;21.80;38.20;;;;;;5006145;28;19915;-75
2021/12/05 08:31:24;;;;;;;;;;;21.80;38.10;;;;;;4983456;28;19964;-73
2021/12/05 09:26:03;;;;;;;;;;;21.80;38.20;;;;;;4996597;28;19920;-74
2021/12/05 09:38:39;;;;;;;;;;;21.80;38.20;;;;;;4989015;28;19925;-74
2021/12/05 10:02:07;;;;;;;;;;;21.80;38.10;;;;;;4963610;28;19921;-74
2021/12/05 10:07:01;;;;;;;;;;;21.80;38.10;;;;;;4994717;28;19961;-75
2021/12/05 10:18:10;;;;;;;;;;;21.80;38.00;;;;;;4993567;28;19911;-75
2021/12/05 10:37:34;;;;;;;;;;;21.80;38.10;;;;;;4995718;28;20270;-74
2021/12/05 10:40:04;;;;;;;;;;;21.90;38.10;;;;;;4995090;28;20250;-74
2021/12/05 10:42:39;;;;;;;;;;;21.90;38.10;;;;;;4977420;28;20387;-75
2021/12/05 10:45:06;;;;;;;;;;;22.00;38.10;;;;;;4993799;28;19922;-75
2021/12/05 10:47:41;;;;;;;;;;;22.10;38.20;;;;;;4994001;28;19986;-75
2021/12/05 10:50:25;;;;;;;;;;;22.10;38.20;;;;;;4994071;28;20009;-75
2021/12/05 10:53:11;;;;;;;;;;;22.10;38.20;;;;;;4994605;28;19921;-74
2021/12/05 10:55:36;;;;;;;;;;;22.20;38.30;;;;;;4982513;28;20456;-74
2021/12/05 10:58:05;;;;;;;;;;;22.20;38.30;;;;;;4992946;28;19966;-73
2021/12/05 11:00:30;;;;;;;;;;;22.20;38.30;;;;;;4977071;28;19917;-74
2021/12/05 11:03:15;;;;;;;;;;;22.20;38.40;;;;;;4993029;28;19936;-73
2021/12/05 11:05:41;;;;;;;;;;;22.20;38.60;;;;;;4994569;28;20012;-73
2021/12/05 11:08:25;;;;;;;;;;;22.20;38.70;;;;;;5009056;28;20021;-73
2021/12/05 11:10:51;;;;;;;;;;;22.20;38.90;;;;;;4992607;28;19917;-73
2021/12/05 11:13:26;;;;;;;;;;;22.20;38.90;;;;;;4993202;28;19914;-73
2021/12/05 11:15:52;;;;;;;;;;;22.20;38.90;;;;;;4976230;28;19917;-73
2021/12/05 11:18:37;;;;;;;;;;;22.30;39.00;;;;;;4993182;28;19921;-73
2021/12/05 11:21:22;;;;;;;;;;;22.30;39.00;;;;;;4994641;28;19961;-73
2021/12/05 11:24:03;;;;;;;;;;;22.30;39.00;;;;;;5005364;28;19968;-73
2021/12/05 11:26:30;;;;;;;;;;;22.30;39.10;;;;;;4993629;28;19976;-73
2021/12/05 11:28:55;;;;;;;;;;;22.30;39.20;;;;;;4994428;28;19910;-73
2021/12/05 11:31:25;;;;;;;;;;;22.30;39.30;;;;;;4993695;28;19982;-74
2021/12/05 11:33:53;;;;;;;;;;;22.30;39.30;;;;;;4974656;28;19996;-74
2021/12/05 11:36:22;;;;;;;;;;;22.30;39.30;;;;;;4988163;28;19918;-74
2021/12/05 11:38:47;;;;;;;;;;;22.30;39.30;;;;;;4982772;28;20048;-74
2021/12/05 11:41:14;;;;;;;;;;;22.30;39.40;;;;;;4994619;28;19941;-74
2021/12/05 11:43:40;;;;;;;;;;;22.30;39.30;;;;;;4992757;28;20259;-74
2021/12/05 11:46:07;;;;;;;;;;;22.30;39.40;;;;;;4994753;28;19969;-74
2021/12/05 11:48:51;;;;;;;;;;;22.30;39.30;;;;;;4993797;28;19914;-74
2021/12/05 11:51:21;;;;;;;;;;;22.30;39.40;;;;;;4994014;28;20004;-73
2021/12/05 11:53:48;;;;;;;;;;;22.30;39.40;;;;;;4986763;28;19910;-74
2021/12/05 11:56:28;;;;;;;;;;;22.30;39.50;;;;;;4976647;28;19917;-74
2021/12/05 11:59:23;;;;;;;;;;;22.30;39.60;;;;;;4993356;28;19910;-74
2021/12/05 12:01:55;;;;;;;;;;;22.30;39.80;;;;;;4985055;28;19914;-74
2021/12/05 12:04:22;;;;;;;;;;;22.30;39.80;;;;;;4994685;28;20008;-74
2021/12/05 12:07:03;;;;;;;;;;;22.30;39.90;;;;;;4993777;28;19918;-74
2021/12/05 12:09:29;;;;;;;;;;;22.30;39.80;;;;;;4992119;28;19929;-75
2021/12/05 12:11:54;;;;;;;;;;;22.40;39.90;;;;;;4992564;28;20378;-74
2021/12/05 12:14:20;;;;;;;;;;;22.40;39.90;;;;;;4975810;28;20381;-74
2021/12/05 12:16:47;;;;;;;;;;;22.40;39.80;;;;;;4992718;28;19918;-73
2021/12/05 12:19:13;;;;;;;;;;;22.40;39.90;;;;;;4991839;28;19918;-74
2021/12/05 12:21:42;;;;;;;;;;;22.40;40.00;;;;;;4991636;28;19921;-74
2021/12/05 12:24:10;;;;;;;;;;;22.40;40.10;;;;;;4981500;28;19939;-74
2021/12/05 12:26:37;;;;;;;;;;;22.40;40.10;;;;;;4969259;28;19918;-74
2021/12/05 12:29:03;;;;;;;;;;;22.40;40.00;;;;;;4966993;28;20346;-74
2021/12/05 12:31:32;;;;;;;;;;;22.40;40.00;;;;;;4993215;28;19953;-74
2021/12/05 12:33:59;;;;;;;;;;;22.40;40.30;;;;;;4991399;28;19921;-74
2021/12/05 12:36:30;;;;;;;;;;;22.40;40.30;;;;;;4990327;28;20370;-74
2021/12/05 12:38:56;;;;;;;;;;;22.40;41.00;;;;;;4992990;28;19917;-74
2021/12/05 12:41:22;;;;;;;;;;;22.40;40.30;;;;;;4992562;28;19909;-74
2021/12/05 12:43:55;;;;;;;;;;;22.40;40.30;;;;;;4991093;28;20336;-74
2021/12/05 12:46:40;;;;;;;;;;;22.40;40.30;;;;;;4992627;28;19924;-73
2021/12/05 12:49:15;;;;;;;;;;;22.40;40.30;;;;;;5007958;28;20373;-73
2021/12/05 12:51:51;;;;;;;;;;;22.40;40.10;;;;;;4993002;28;19924;-73
2021/12/05 12:54:28;;;;;;;;;;;22.40;40.20;;;;;;4991529;28;19916;-74
2021/12/05 12:57:01;;;;;;;;;;;22.40;40.30;;;;;;4990298;28;20008;-74
2021/12/05 12:59:30;;;;;;;;;;;22.50;40.30;;;;;;4992263;28;20012;-74
2021/12/05 13:05:03;;;;;;;;;;;22.40;40.40;;;;;;4992518;28;20290;-73
2021/12/05 13:10:23;;;;;;;;;;;22.50;40.40;;;;;;4990626;28;20266;-72
2021/12/05 13:12:58;;;;;;;;;;;22.50;40.00;;;;;;4998863;28;20273;-73
2021/12/05 13:15:24;;;;;;;;;;;22.50;39.90;;;;;;4975726;28;19910;-72
2021/12/05 13:17:50;;;;;;;;;;;22.50;39.70;;;;;;4991419;28;19920;-71
2021/12/05 13:20:20;;;;;;;;;;;22.40;39.40;;;;;;5008215;28;19949;-72
2021/12/05 13:23:03;;;;;;;;;;;22.50;39.40;;;;;;5007912;28;19973;-73
2021/12/05 13:25:28;;;;;;;;;;;22.50;39.10;;;;;;4991095;28;20334;-72
2021/12/05 13:27:56;;;;;;;;;;;22.50;39.00;;;;;;4992052;28;19960;-73
2021/12/05 13:30:29;;;;;;;;;;;22.50;38.80;;;;;;4990781;28;19914;-73
2021/12/05 13:33:13;;;;;;;;;;;22.40;38.90;;;;;;5009191;28;20008;-73
2021/12/05 13:35:40;;;;;;;;;;;22.50;39.10;;;;;;4984046;28;19985;-73
2021/12/05 13:38:06;;;;;;;;;;;22.50;39.20;;;;;;4991059;28;19965;-73
2021/12/05 13:40:31;;;;;;;;;;;22.50;39.30;;;;;;4991027;28;19926;-73
2021/12/05 13:43:01;;;;;;;;;;;22.50;39.30;;;;;;4974377;28;19968;-73
2021/12/05 13:45:27;;;;;;;;;;;22.60;39.40;;;;;;5005329;28;19967;-73
2021/12/05 13:47:52;;;;;;;;;;;22.60;39.40;;;;;;4983424;28;20370;-73
2021/12/05 13:50:18;;;;;;;;;;;22.60;39.40;;;;;;4992773;28;20000;-73
2021/12/05 13:52:45;;;;;;;;;;;22.60;39.40;;;;;;4990517;28;19988;-73
2021/12/05 13:55:29;;;;;;;;;;;22.60;39.40;;;;;;4990466;28;20378;-72
2021/12/05 13:58:13;;;;;;;;;;;22.70;39.60;;;;;;4986480;28;19972;-74
2021/12/05 14:00:46;;;;;;;;;;;22.70;39.60;;;;;;4992631;28;19917;-74
2021/12/05 14:03:12;;;;;;;;;;;22.70;39.50;;;;;;4999070;28;19910;-73
2021/12/05 14:05:44;;;;;;;;;;;22.70;39.60;;;;;;4996280;28;20004;-73
2021/12/05 14:08:10;;;;;;;;;;;22.60;39.60;;;;;;4982462;28;19926;-74
2021/12/05 14:10:43;;;;;;;;;;;22.60;39.70;;;;;;4989474;28;20422;-73
2021/12/05 14:13:09;;;;;;;;;;;22.70;39.90;;;;;;4983343;28;19968;-73
2021/12/05 14:15:34;;;;;;;;;;;22.60;39.90;;;;;;4988733;28;19922;-73
2021/12/05 14:18:00;;;;;;;;;;;22.60;39.80;;;;;;4985735;28;19925;-73
2021/12/05 14:20:26;;;;;;;;;;;22.60;39.70;;;;;;4985537;28;20454;-74
2021/12/05 14:22:51;;;;;;;;;;;22.70;40.00;;;;;;4990806;28;20325;-74
2021/12/05 14:25:26;;;;;;;;;;;22.70;39.90;;;;;;4982499;28;19955;-74
2021/12/05 14:27:52;;;;;;;;;;;22.60;39.90;;;;;;4993294;28;19953;-74
2021/12/05 14:30:19;;;;;;;;;;;22.70;40.00;;;;;;4977921;28;19914;-74
2021/12/05 14:32:45;;;;;;;;;;;22.70;40.00;;;;;;4995999;28;20009;-74
2021/12/05 14:35:15;;;;;;;;;;;22.70;40.00;;;;;;5002242;28;19961;-74
2021/12/05 14:37:42;;;;;;;;;;;22.70;40.00;;;;;;5002780;28;19921;-74
2021/12/05 14:40:17;;;;;;;;;;;22.70;40.00;;;;;;5001782;28;19943;-74
2021/12/05 14:42:43;;;;;;;;;;;22.70;40.00;;;;;;4989086;28;19965;-74
2021/12/05 14:45:10;;;;;;;;;;;22.70;40.00;;;;;;4983368;28;19922;-73
2021/12/05 14:47:36;;;;;;;;;;;22.70;40.00;;;;;;4984886;28;19921;-73
2021/12/05 14:50:22;;;;;;;;;;;22.70;40.00;;;;;;5005423;28;19968;-74
2021/12/05 14:52:49;;;;;;;;;;;22.70;40.00;;;;;;5009548;28;19967;-74
2021/12/05 14:55:15;;;;;;;;;;;22.70;40.00;;;;;;4992357;28;19944;-74
2021/12/05 14:57:46;;;;;;;;;;;22.70;39.90;;;;;;4993985;28;20393;-74
2021/12/05 15:00:14;;;;;;;;;;;22.70;39.80;;;;;;4993784;28;19921;-74
2021/12/05 15:02:40;;;;;;;;;;;22.70;39.70;;;;;;4994130;28;20364;-74
2021/12/05 15:05:08;;;;;;;;;;;22.70;39.70;;;;;;4994927;28;19917;-74
2021/12/05 15:07:33;;;;;;;;;;;22.70;39.70;;;;;;4993670;28;19922;-74
2021/12/05 15:09:58;;;;;;;;;;;22.70;39.70;;;;;;4994642;28;19960;-75
2021/12/05 15:12:30;;;;;;;;;;;22.70;39.80;;;;;;4990692;28;22325;-75
2021/12/05 15:14:57;;;;;;;;;;;22.70;39.70;;;;;;4995107;28;19922;-75
2021/12/05 15:17:23;;;;;;;;;;;22.70;39.70;;;;;;4991050;28;19977;-75
2021/12/05 15:19:49;;;;;;;;;;;22.70;39.60;;;;;;4995337;28;19918;-75
2021/12/05 15:22:15;;;;;;;;;;;22.80;39.60;;;;;;4992758;28;19921;-75
2021/12/05 15:24:41;;;;;;;;;;;22.80;39.60;;;;;;4994879;28;19969;-75
2021/12/05 15:27:13;;;;;;;;;;;22.70;39.60;;;;;;4994332;28;19933;-75
2021/12/05 15:29:39;;;;;;;;;;;22.70;39.60;;;;;;4993731;28;20000;-74
2021/12/05 15:32:04;;;;;;;;;;;22.70;39.60;;;;;;4993421;28;19960;-75
2021/12/05 15:34:34;;;;;;;;;;;22.80;39.70;;;;;;4991012;28;20378;-75
2021/12/05 15:37:04;;;;;;;;;;;22.70;39.60;;;;;;5009342;28;20009;-74
2021/12/05 15:39:30;;;;;;;;;;;22.70;39.50;;;;;;4992961;28;19973;-74
2021/12/05 15:41:56;;;;;;;;;;;22.70;39.60;;;;;;4993789;28;19960;-75
2021/12/05 15:44:32;;;;;;;;;;;22.80;39.60;;;;;;4994116;28;19914;-75
2021/12/05 15:47:04;;;;;;;;;;;22.70;40.20;;;;;;4994692;28;20370;-74
2021/12/05 15:50:00;;;;;;;;;;;22.70;39.50;;;;;;4993066;28;20012;-74
2021/12/05 15:52:48;;;;;;;;;;;22.70;39.50;;;;;;4971805;28;19917;-74
2021/12/05 15:55:15;;;;;;;;;;;22.70;39.60;;;;;;4983090;28;19914;-74
2021/12/05 15:57:42;;;;;;;;;;;22.70;39.50;;;;;;4993657;28;19936;-74
2021/12/05 16:00:10;;;;;;;;;;;22.80;39.50;;;;;;5012719;28;19909;-74
2021/12/05 16:02:35;;;;;;;;;;;22.70;39.50;;;;;;5009287;28;19930;-74
2021/12/05 16:05:01;;;;;;;;;;;22.70;39.50;;;;;;4992615;28;20263;-74
2021/12/05 16:07:28;;;;;;;;;;;22.70;39.50;;;;;;4991702;28;19914;-74
2021/12/05 16:09:54;;;;;;;;;;;22.70;39.50;;;;;;4994127;28;19918;-74
2021/12/05 16:12:19;;;;;;;;;;;22.70;39.50;;;;;;4975615;28;20353;-74
2021/12/05 16:14:46;;;;;;;;;;;22.70;39.50;;;;;;4993597;28;19976;-74
2021/12/05 16:17:32;;;;;;;;;;;22.80;39.50;;;;;;4992471;28;19918;-74
2021/12/05 16:20:20;;;;;;;;;;;22.80;39.50;;;;;;4981395;28;19961;-74
2021/12/05 16:23:18;;;;;;;;;;;22.80;39.50;;;;;;4983920;28;19921;-74
2021/12/05 16:25:57;;;;;;;;;;;22.80;39.50;;;;;;4977879;28;19914;-73
2021/12/05 16:28:25;;;;;;;;;;;22.70;39.40;;;;;;4992320;28;19913;-74
2021/12/05 16:30:55;;;;;;;;;;;22.80;39.50;;;;;;4991644;28;19917;-73
2021/12/05 16:33:20;;;;;;;;;;;22.80;39.40;;;;;;4968598;28;19921;-74
2021/12/05 16:35:49;;;;;;;;;;;22.80;39.40;;;;;;4989158;28;19918;-74
2021/12/05 16:38:18;;;;;;;;;;;22.70;39.40;;;;;;4993687;28;19914;-74
2021/12/05 16:40:54;;;;;;;;;;;22.70;39.40;;;;;;4991821;28;19914;-74
2021/12/05 16:43:20;;;;;;;;;;;22.70;39.40;;;;;;4991425;28;19918;-74
2021/12/05 16:45:45;;;;;;;;;;;22.80;39.40;;;;;;4988707;28;19918;-74
2021/12/05 16:48:11;;;;;;;;;;;22.80;39.30;;;;;;4993109;28;19960;-74
2021/12/05 16:50:37;;;;;;;;;;;22.80;39.40;;;;;;4975092;28;20326;-73
2021/12/05 16:53:02;;;;;;;;;;;22.80;39.40;;;;;;4993365;28;19918;-74
2021/12/05 16:55:30;;;;;;;;;;;22.80;39.40;;;;;;4987822;28;19917;-74
2021/12/05 16:58:13;;;;;;;;;;;22.80;39.40;;;;;;4991045;28;19922;-74
2021/12/05 17:00:39;;;;;;;;;;;22.80;39.40;;;;;;4997829;28;19914;-74
2021/12/05 17:03:07;;;;;;;;;;;22.80;39.30;;;;;;4991384;28;19941;-74
2021/12/05 17:05:37;;;;;;;;;;;22.80;39.30;;;;;;4992274;28;20388;-74
2021/12/05 17:08:12;;;;;;;;;;;22.80;39.40;;;;;;4992799;28;19929;-74
2021/12/05 17:10:42;;;;;;;;;;;22.80;39.40;;;;;;4991932;28;19914;-74
2021/12/05 17:13:34;;;;;;;;;;;22.80;39.40;;;;;;4991109;28;19921;-74
2021/12/05 17:16:10;;;;;;;;;;;22.80;39.30;;;;;;4993518;28;20422;-74
2021/12/05 17:18:38;;;;;;;;;;;22.80;39.40;;;;;;4991423;28;19976;-74
2021/12/05 17:21:09;;;;;;;;;;;22.80;39.30;;;;;;4991357;28;19914;-73
2021/12/05 17:23:46;;;;;;;;;;;22.80;39.40;;;;;;4991418;28;19914;-74
2021/12/05 17:26:19;;;;;;;;;;;22.70;39.30;;;;;;4992023;28;19910;-74
2021/12/05 17:28:49;;;;;;;;;;;22.70;39.30;;;;;;4991356;28;19925;-74
2021/12/05 17:31:15;;;;;;;;;;;22.70;39.30;;;;;;4975549;28;19925;-74
2021/12/05 17:33:45;;;;;;;;;;;22.70;40.10;;;;;;4993123;28;19945;-74
2021/12/05 17:36:13;;;;;;;;;;;22.70;39.30;;;;;;4979557;28;20298;-73
2021/12/05 17:38:39;;;;;;;;;;;22.70;39.50;;;;;;4996069;28;19918;-74
2021/12/05 17:41:04;;;;;;;;;;;22.70;39.40;;;;;;4995658;28;19987;-73
2021/12/05 17:43:30;;;;;;;;;;;22.80;39.50;;;;;;4993848;28;20016;-74
2021/12/05 17:45:56;;;;;;;;;;;22.80;39.40;;;;;;4998777;28;19921;-73
2021/12/05 17:48:22;;;;;;;;;;;22.80;39.30;;;;;;5000741;28;20290;-74
2021/12/05 17:50:52;;;;;;;;;;;22.80;39.30;;;;;;4994764;28;19914;-74
2021/12/05 17:53:18;;;;;;;;;;;22.80;39.30;;;;;;4995518;28;19914;-74
2021/12/05 17:55:46;;;;;;;;;;;22.80;39.30;;;;;;4994219;28;19969;-74
2021/12/05 17:58:23;;;;;;;;;;;22.80;39.40;;;;;;4994548;28;19929;-74
2021/12/05 18:02:37;;;;;;;;;;;22.80;39.30;;;;;;4980035;28;19913;-74
2021/12/05 18:03:43;;;;;;;;;;;22.80;39.30;;;;;;4995395;28;20397;-73
2021/12/05 18:06:08;;;;;;;;;;;22.80;39.30;;;;;;4975285;28;19915;-74
2021/12/05 18:08:34;;;;;;;;;;;22.80;39.90;;;;;;4988044;28;19921;-73
2021/12/05 18:11:03;;;;;;;;;;;22.80;39.30;;;;;;4991955;28;19961;-73
2021/12/05 18:13:33;;;;;;;;;;;22.90;39.30;;;;;;4989601;28;19925;-73
2021/12/05 18:16:04;;;;;;;;;;;22.80;39.30;;;;;;4995042;28;20004;-73
2021/12/05 18:18:30;;;;;;;;;;;22.70;39.30;;;;;;5002564;28;19921;-73
2021/12/05 18:20:55;;;;;;;;;;;22.60;39.40;;;;;;4978668;28;19973;-72
2021/12/05 18:23:21;;;;;;;;;;;22.60;39.60;;;;;;4992270;28;19917;-73
2021/12/05 18:25:46;;;;;;;;;;;22.50;39.60;;;;;;4976917;28;19917;-73
2021/12/05 18:28:12;;;;;;;;;;;22.40;39.70;;;;;;4976709;28;19910;-72
2021/12/05 18:30:37;;;;;;;;;;;22.40;39.80;;;;;;4993682;28;19914;-73
2021/12/05 18:33:03;;;;;;;;;;;22.30;39.80;;;;;;4976885;28;19910;-72
2021/12/05 18:35:32;;;;;;;;;;;22.20;39.70;;;;;;4973911;28;19917;-72
2021/12/05 18:38:00;;;;;;;;;;;22.20;39.80;;;;;;4992955;28;19921;-72
2021/12/05 18:40:25;;;;;;;;;;;22.10;39.70;;;;;;4977440;28;19925;-73
2021/12/05 18:42:51;;;;;;;;;;;22.10;39.70;;;;;;4995344;28;19910;-73
2021/12/05 18:45:19;;;;;;;;;;;22.10;39.70;;;;;;4994659;28;19910;-73
2021/12/05 18:47:44;;;;;;;;;;;22.00;39.60;;;;;;4996459;28;20049;-73
2021/12/05 18:50:10;;;;;;;;;;;22.00;39.60;;;;;;4995854;28;20000;-73
2021/12/05 18:52:36;;;;;;;;;;;21.90;39.60;;;;;;4994547;28;19920;-73
2021/12/05 18:55:03;;;;;;;;;;;21.90;39.60;;;;;;4994989;28;20282;-73
2021/12/05 18:57:29;;;;;;;;;;;21.90;39.70;;;;;;5013535;28;20373;-73
2021/12/05 19:00:07;;;;;;;;;;;21.80;39.80;;;;;;5015321;28;19925;-73
2021/12/05 19:05:22;;;;;;;;;;;21.70;39.90;;;;;;5014009;28;19916;-73
2021/12/05 19:08:03;;;;;;;;;;;21.70;40.10;;;;;;5015202;28;20326;-73
2021/12/05 19:13:12;;;;;;;;;;;21.70;40.20;;;;;;5002527;28;20307;-73
2021/12/05 19:15:38;;;;;;;;;;;21.70;40.30;;;;;;5008679;28;19914;-72
2021/12/05 19:18:03;;;;;;;;;;;21.70;40.40;;;;;;4995034;28;19914;-72
2021/12/05 19:20:29;;;;;;;;;;;21.70;40.40;;;;;;4990694;28;20348;-73
2021/12/05 19:22:54;;;;;;;;;;;21.70;40.40;;;;;;4988187;28;19910;-73
2021/12/05 19:25:21;;;;;;;;;;;21.70;40.40;;;;;;4977428;28;20012;-73
2021/12/05 19:27:47;;;;;;;;;;;21.80;40.50;;;;;;4993208;28;19968;-73
2021/12/05 19:30:20;;;;;;;;;;;21.80;40.40;;;;;;4990444;28;19915;-73
2021/12/05 19:32:45;;;;;;;;;;;21.80;40.40;;;;;;4987766;28;19921;-72
2021/12/05 19:35:11;;;;;;;;;;;21.90;40.40;;;;;;4991020;28;19921;-72
2021/12/05 19:37:37;;;;;;;;;;;21.90;40.40;;;;;;4980132;28;19924;-72
2021/12/05 19:40:03;;;;;;;;;;;21.90;40.30;;;;;;4993472;28;19933;-73
2021/12/05 19:42:29;;;;;;;;;;;21.90;40.30;;;;;;5009441;28;19914;-72